Terminal Aerodrome Forecast
Issued by NWS

Home | Current Version | Previous Version | Text Only | Print | Product List | Glossary On
Versions: 1 2 3 4 5 6 7 8 9 10 11 12 13 14 15 16 17 18 19 20 21 22 23
000
FTUS41 KGYX 010532
TAFHIE
TAF
KHIE 010532Z 0106/0206 00000KT P6SM BKN090
      TEMPO 0109/0112 3SM BR
     FM011500 27008KT P6SM VCTS BKN050CB BKN080
     FM012100 27008KT P6SM SCT060
     FM020000 00000KT P6SM SCT060=

USA.gov is the U.S. government's official web portal to all federal, state and local government web resources and services.